MOUNT RAINIER
GEOLOGY & WEATHER
Hello guest! [ Log In ]
morageology.com Water Data for Chinook Pass Base at Mount Rainier National Park

Chinook Pass Base at Mount Rainier National Park

Date Range to view:
 
[ Graphical View | Weather History ]

View this data in a CSV Format

GMT Date/Time Local Date/Time Air Temperature (°C) Dew Point Temperature (°C) Enclosure Temperature (°C) Relative Humidity (%) Rainfall (in) Snow Depth (m) Battery (V)
2023-11-29 08:00:00 2023-11-29 00:00:00 -1.6833 -12.0196 -1.5 45.2 580.63 0.557 12.1
2023-11-29 09:00:00 2023-11-29 01:00:00 -2.2278 -11.7237 -2.3 48.2 580.63 0.550 12.1
2023-11-29 10:00:00 2023-11-29 02:00:00 -2.2611 -12.0982 -2.0 46.9 580.63 0.550 12.1
2023-11-29 11:00:00 2023-11-29 03:00:00 -2.3778 -12.6641 -2.5 45.2 580.63 0.557 12.1
2023-11-29 12:00:00 2023-11-29 04:00:00 -2.6056 -12.6044 -2.1 46.2 580.63 0.556 12.1
2023-11-29 13:00:00 2023-11-29 05:00:00 -2.9389 -12.0739 -3.1 49.4 580.63 0.560 12.1
2023-11-29 14:00:00 2023-11-29 06:00:00 -3.0222 -11.1870 -2.9 53.3 580.63 0.561 12.1
2023-11-29 15:00:00 2023-11-29 07:00:00 -3.0778 -11.7733 -2.5 51.1 580.63 0.561 12.1
2023-11-29 16:00:00 2023-11-29 08:00:00 -2.8000 -11.4177 -2.5 51.5 580.63 0.564 12.1
2023-11-29 17:00:00 2023-11-29 09:00:00 -2.6889 -11.2416 -2.4 51.8 580.63 0.567 12.3
2023-11-29 18:00:00 2023-11-29 10:00:00 -0.7444 -11.0461 0.1 45.6 580.63 0.567 12.7
2023-11-29 19:00:00 2023-11-29 11:00:00 -0.4278 -10.0160 0.3 48.4 580.63 0.562 13.3
2023-11-29 20:00:00 2023-11-29 12:00:00 -0.9167 -10.6246 -0.8 47.8 580.63 0.566 13.1
2023-11-29 21:00:00 2023-11-29 13:00:00 -1.5667 -10.1663 -1.3 51.9 580.63 0.558 12.9
2023-11-29 22:00:00 2023-11-29 14:00:00 -1.6778 -10.0929 -1.7 52.7 580.63 0.557 12.8
2023-11-29 23:00:00 2023-11-29 15:00:00 -2.5944 -10.2300 -2.5 55.8 580.63 0.553 12.6
2023-11-30 00:00:00 2023-11-29 16:00:00 -3.2444 -9.9110 -3.1 60.0 580.63 0.561 12.4
2023-11-30 01:00:00 2023-11-29 17:00:00 -3.7056 -9.8216 -3.6 62.5 580.63 0.554 12.3
2023-11-30 02:00:00 2023-11-29 18:00:00 -3.8722 -9.6631 -3.7 64.1 580.63 0.560 12.3
2023-11-30 03:00:00 2023-11-29 19:00:00 -4.2222 -9.4798 -4.0 66.8 580.63 0.560 12.2
2023-11-30 04:00:00 2023-11-29 20:00:00 -4.0111 -9.2379 -3.9 67.0 580.63 0.560 12.2
2023-11-30 05:00:00 2023-11-29 21:00:00 -4.2556 -9.0595 -4.2 69.2 580.63 0.566 12.2
2023-11-30 06:00:00 2023-11-29 22:00:00 -4.4111 -8.7263 -4.3 71.9 580.63 0.552 12.2
2023-11-30 07:00:00 2023-11-29 23:00:00 -4.5278 -8.4485 -4.4 74.1 580.63 0.560 12.2
2023-11-30 08:00:00 2023-11-30 00:00:00 -4.9500 -8.3276 -4.9 77.2 580.63 0.563 12.1
2023-11-30 09:00:00 2023-11-30 01:00:00 -4.9611 -8.0269 -4.8 79.1 580.63 0.555 12.1
2023-11-30 10:00:00 2023-11-30 02:00:00 -4.6611 -6.8438 -4.5 84.7 580.63 0.557 12.1
2023-11-30 11:00:00 2023-11-30 03:00:00 -4.4667 -6.1681 -4.4 87.9 580.63 0.557 12.1
2023-11-30 12:00:00 2023-11-30 04:00:00 -4.5167 -5.9517 -4.3 89.7 580.63 0.560 12.1
2023-11-30 13:00:00 2023-11-30 05:00:00 -4.5778 -6.0560 -4.5 89.4 580.63 0.560 12.1
2023-11-30 14:00:00 2023-11-30 06:00:00 -4.5056 -5.9554 -4.3 89.6 580.63 0.555 12.1
2023-11-30 15:00:00 2023-11-30 07:00:00 -4.6278 -6.1347 -4.6 89.2 580.63 0.556 12.1
2023-11-30 16:00:00 2023-11-30 08:00:00 -4.4444 -5.9979 -4.5 88.9 580.63 0.555 12.1
2023-11-30 17:00:00 2023-11-30 09:00:00 -4.5889 -5.9793 -4.3 90.0 580.63 0.556 12.1
2023-11-30 18:00:00 2023-11-30 10:00:00 -5.6111 -6.9319 -5.5 90.4 580.63 0.559 12.2
2023-11-30 19:00:00 2023-11-30 11:00:00 -7.0556 -8.4317 -6.5 89.9 580.63 0.567 12.3
2023-11-30 20:00:00 2023-11-30 12:00:00 -7.4500 -8.7505 -7.1 90.4 580.63 0.568 12.4
2023-11-30 21:00:00 2023-11-30 13:00:00 -7.7444 -9.0558 -7.3 90.3 580.63 0.565 12.5
2023-11-30 22:00:00 2023-11-30 14:00:00 -7.2944 -8.6821 -7.0 89.8 580.63 0.576 12.5
2023-11-30 23:00:00 2023-11-30 15:00:00 -7.6389 -8.9373 -7.4 90.4 580.63 0.591 12.3
2023-12-01 00:00:00 2023-11-30 16:00:00 -8.2111 -9.4610 -7.9 90.7 580.63 0.607 12.2
2023-12-01 01:00:00 2023-11-30 17:00:00 -8.5111 -9.9411 -8.4 89.4 580.63 0.602 12.2
2023-12-01 02:00:00 2023-11-30 18:00:00 -8.8222 -10.3336 -8.7 88.8 580.63 0.612 12.1
2023-12-01 03:00:00 2023-11-30 19:00:00 -8.7222 -10.1638 -8.2 89.3 580.63 0.622 12.1
2023-12-01 04:00:00 2023-11-30 20:00:00 -5.7833 -6.8599 -5.3 92.1 580.63 0.634 12.1
2023-12-01 05:00:00 2023-11-30 21:00:00 -5.5389 -6.6602 -5.2 91.8 580.63 0.639 12.1
2023-12-01 06:00:00 2023-11-30 22:00:00 -5.6111 -6.8029 -5.5 91.3 580.63 0.639 12.1
2023-12-01 07:00:00 2023-11-30 23:00:00 -5.5778 -6.7414 -5.4 91.5 580.63 0.648 12.1
2023-12-01 08:00:00 2023-12-01 00:00:00 -5.6778 -6.8689 -5.5 91.3 580.63 0.645 12.1
2023-12-01 09:00:00 2023-12-01 01:00:00 -5.6778 -6.8262 -5.5 91.6 580.63 0.654 12.1
2023-12-01 10:00:00 2023-12-01 02:00:00 -5.5889 -6.7382 -5.4 91.6 580.63 0.654 12.1
2023-12-01 11:00:00 2023-12-01 03:00:00 -5.6056 -6.7405 -5.3 91.7 580.63 0.658 12.1
2023-12-01 12:00:00 2023-12-01 04:00:00 -5.5556 -6.6483 -5.2 92.0 580.63 0.672 12.1
2023-12-01 13:00:00 2023-12-01 05:00:00 -5.2056 -6.2873 -4.9 92.1 580.63 0.699 12.1
2023-12-01 14:00:00 2023-12-01 06:00:00 -5.0000 -6.0979 -4.8 92.0 580.63 0.770 12.1
2023-12-01 15:00:00 2023-12-01 07:00:00 -4.8611 -5.9318 -4.8 92.2 580.63 0.794 12.1
2023-12-01 16:00:00 2023-12-01 08:00:00 -4.7889 -5.8460 -4.6 92.3 580.63 0.804 12.1
2023-12-01 17:00:00 2023-12-01 09:00:00 -4.7000 -5.8292 -4.7 91.8 580.63 0.814 12.2
2023-12-01 18:00:00 2023-12-01 10:00:00 -4.7278 -5.8282 -4.8 92.0 580.63 0.820 12.3
2023-12-01 19:00:00 2023-12-01 11:00:00 -4.9722 -6.1418 -4.9 91.5 580.63 0.848 12.3
2023-12-01 20:00:00 2023-12-01 12:00:00 -4.9111 -6.1099 -5.2 91.3 580.63 0.863 12.4
2023-12-01 21:00:00 2023-12-01 13:00:00 -4.8056 -5.9052 -4.5 92.0 580.63 3.688 12.4
2023-12-01 22:00:00 2023-12-01 14:00:00 -4.8167 -5.9448 -4.5 91.8 580.63 0.854 12.4
2023-12-01 23:00:00 2023-12-01 15:00:00 -4.3222 -5.6138 -3.8 90.7 580.63 0.852 12.4
2023-12-02 00:00:00 2023-12-01 16:00:00 -4.6833 -5.8557 -4.5 91.5 580.63 0.841 12.3
2023-12-02 01:00:00 2023-12-01 17:00:00 -4.6667 -5.7391 -4.5 92.2 580.63 0.861 12.2
2023-12-02 02:00:00 2023-12-01 18:00:00 -4.6389 -5.7115 -4.5 92.2 580.63 0.877 12.1
2023-12-02 03:00:00 2023-12-01 19:00:00 -4.6222 -5.6665 -4.4 92.4 580.63 0.887 12.1
2023-12-02 04:00:00 2023-12-01 20:00:00 -4.4833 -5.5146 -4.2 92.5 580.63 0.913 12.1
2023-12-02 05:00:00 2023-12-01 21:00:00 -4.5889 -5.6763 -4.6 92.1 580.63 0.960 12.1
2023-12-02 06:00:00 2023-12-01 22:00:00 -4.6056 -5.6928 -4.6 92.1 580.63 0.960 12.1
2023-12-02 07:00:00 2023-12-01 23:00:00 -4.7722 -5.9151 -4.7 91.7 580.63 0.991 12.1
2023-12-02 08:00:00 2023-12-02 00:00:00 -4.0167 -5.0377 -3.8 92.6 580.63 1.028 12.1
2023-12-02 09:00:00 2023-12-02 01:00:00 -3.6444 -4.6400 -3.5 92.8 580.63 1.081 12.1
2023-12-02 10:00:00 2023-12-02 02:00:00 -3.5667 -4.5343 -3.4 93.0 580.63 1.099 12.1
2023-12-02 11:00:00 2023-12-02 03:00:00 -3.5889 -4.5706 -3.5 92.9 580.63 1.145 12.1
2023-12-02 12:00:00 2023-12-02 04:00:00 -3.7333 -4.7425 -3.6 92.7 580.63 1.184 12.1
2023-12-02 13:00:00 2023-12-02 05:00:00 -3.2444 -4.1006 -2.9 93.8 580.63 1.217 12.1
2023-12-02 14:00:00 2023-12-02 06:00:00 -3.5556 -4.5662 -3.9 92.7 580.63 1.232 12.1
2023-12-02 15:00:00 2023-12-02 07:00:00 -4.0000 -4.9641 -3.8 93.0 580.63 1.273 12.1
2023-12-02 16:00:00 2023-12-02 08:00:00 -4.3944 -5.4407 -4.1 92.4 580.63 1.255 12.1
2023-12-02 17:00:00 2023-12-02 09:00:00 -5.2056 -7.0006 -4.4 87.2 580.63 1.227 12.2
2023-12-02 18:00:00 2023-12-02 10:00:00 -4.7833 -6.1714 -4.4 90.0 580.63 1.211 12.5
2023-12-02 19:00:00 2023-12-02 11:00:00 -4.5111 -5.5849 -4.1 92.2 580.63 1.192 12.6
2023-12-02 20:00:00 2023-12-02 12:00:00 -3.8722 -5.2709 -3.2 90.0 580.63 1.198 13.1
2023-12-02 21:00:00 2023-12-02 13:00:00 -4.3000 -6.6911 -3.5 83.4 580.63 1.185 13.3
2023-12-02 22:00:00 2023-12-02 14:00:00 -4.0556 -5.2197 -3.8 91.6 580.63 1.178 12.9
2023-12-02 23:00:00 2023-12-02 15:00:00 -4.0667 -5.2307 -3.9 91.6 580.63 1.178 12.7
2023-12-03 00:00:00 2023-12-02 16:00:00 -4.1778 -5.2976 -4.1 91.9 580.63 1.174 12.5
2023-12-03 01:00:00 2023-12-02 17:00:00 -4.6056 -5.7500 -4.5 91.7 580.63 1.168 12.3
2023-12-03 02:00:00 2023-12-02 18:00:00 -4.5167 -5.5334 -4.3 92.6 580.63 1.161 12.3
2023-12-03 03:00:00 2023-12-02 19:00:00 -4.3389 -5.3287 -4.0 92.8 580.63 1.170 12.3
2023-12-03 04:00:00 2023-12-02 20:00:00 -4.3500 -5.3539 -4.2 92.7 580.63 1.161 12.2
2023-12-03 05:00:00 2023-12-02 21:00:00 -4.4556 -5.4728 -4.2 92.6 580.63 1.158 12.2
2023-12-03 06:00:00 2023-12-02 22:00:00 -4.0833 -5.0610 -3.9 92.9 580.63 1.151 12.2
2023-12-03 07:00:00 2023-12-02 23:00:00 -4.2222 -5.2415 -4.1 92.6 580.63 1.146 12.2
2023-12-03 08:00:00 2023-12-03 00:00:00 -4.8833 -5.9254 -4.6 92.4 580.63 1.147 12.2
2023-12-03 09:00:00 2023-12-03 01:00:00 -4.5333 -5.6069 -4.3 92.2 580.63 1.140 12.2
2023-12-03 10:00:00 2023-12-03 02:00:00 -4.4389 -5.5993 -4.3 91.6 580.63 1.138 12.1
2023-12-03 11:00:00 2023-12-03 03:00:00 -4.8278 -5.8845 -4.7 92.3 580.63 1.137 12.1
2023-12-03 12:00:00 2023-12-03 04:00:00 -4.8167 -5.8593 -4.5 92.4 580.63 1.128 12.1
2023-12-03 13:00:00 2023-12-03 05:00:00 -4.0500 -5.0422 -3.8 92.8 580.63 1.139 12.1
2023-12-03 14:00:00 2023-12-03 06:00:00 -4.0500 -5.0280 -3.8 92.9 580.63 1.141 12.1
2023-12-03 15:00:00 2023-12-03 07:00:00 -1.4000 -1.9835 -0.9 95.8 580.63 1.154 12.1
2023-12-03 16:00:00 2023-12-03 08:00:00 -2.5111 -3.1314 -1.9 95.5 580.63 1.173 12.1
2023-12-03 17:00:00 2023-12-03 09:00:00 -0.7722 -1.3445 -0.4 95.9 580.63 1.192 12.1
2023-12-03 18:00:00 2023-12-03 10:00:00 -0.4556 -1.0008 -0.1 96.1 580.63 1.205 12.3
2023-12-03 19:00:00 2023-12-03 11:00:00 -0.0833 -0.6303 0.7 96.1 580.63 1.201 12.6
2023-12-03 20:00:00 2023-12-03 12:00:00 0.2056 -0.3284 0.9 96.2 580.63 1.173 12.6
2023-12-03 21:00:00 2023-12-03 13:00:00 0.5500 0.0145 1.2 96.2 580.63 1.167 12.8
2023-12-03 22:00:00 2023-12-03 14:00:00 0.8611 0.2955 1.4 96.0 580.63 1.157 13.2
2023-12-03 23:00:00 2023-12-03 15:00:00 0.6056 -0.0309 0.9 95.5 580.63 1.151 12.8
2023-12-04 00:00:00 2023-12-03 16:00:00 -0.3833 -1.4503 0.1 92.5 580.63 1.147 12.5
2023-12-04 01:00:00 2023-12-03 17:00:00 -0.4444 -1.6439 -0.1 91.6 580.63 1.142 12.3
2023-12-04 02:00:00 2023-12-03 18:00:00 -0.5611 -1.9085 -0.3 90.6 580.63 1.141 12.3
2023-12-04 03:00:00 2023-12-03 19:00:00 -1.0000 -2.7971 -1.0 87.6 580.63 1.139 12.2
2023-12-04 04:00:00 2023-12-03 20:00:00 -1.5889 -3.6087 -1.4 86.1 580.63 1.134 12.2
2023-12-04 05:00:00 2023-12-03 21:00:00 -1.9500 -3.1935 -1.8 91.2 580.63 1.138 12.2
2023-12-04 06:00:00 2023-12-03 22:00:00 -2.5500 -3.6270 -2.6 92.3 580.63 1.129 12.2
2023-12-04 07:00:00 2023-12-03 23:00:00 -2.3333 -4.0804 -2.3 87.8 580.63 1.132 12.2
2023-12-04 08:00:00 2023-12-04 00:00:00 -2.2944 -5.1612 -2.2 80.7 580.63 1.123 12.2
2023-12-04 09:00:00 2023-12-04 01:00:00 -1.3333 -4.2725 -1.1 80.4 580.63 1.129 12.1
2023-12-04 10:00:00 2023-12-04 02:00:00 -0.3778 -2.5123 0.0 85.5 580.63 1.114 12.1
2023-12-04 11:00:00 2023-12-04 03:00:00 -0.1444 -2.2989 -0.1 85.4 580.63 1.117 12.1
2023-12-04 12:00:00 2023-12-04 04:00:00 0.3444 -2.5517 0.3 80.9 580.63 1.115 12.1
2023-12-04 13:00:00 2023-12-04 05:00:00 0.1056 -2.7351 0.6 81.2 580.63 1.111 12.1
2023-12-04 14:00:00 2023-12-04 06:00:00 -0.4611 -2.5312 -0.1 85.9 580.63 1.117 12.1
2023-12-04 15:00:00 2023-12-04 07:00:00 -0.2056 -2.3589 -0.4 85.4 580.63 1.092 12.1
2023-12-04 16:00:00 2023-12-04 08:00:00 0.5278 -0.3115 0.8 94.1 580.63 1.081 12.1
2023-12-04 17:00:00 2023-12-04 09:00:00 0.5722 -0.0208 1.0 95.8 580.63 1.079 12.1
2023-12-04 18:00:00 2023-12-04 10:00:00 2.0833 1.4975 2.5 95.9 580.63 1.070 12.2
2023-12-04 19:00:00 2023-12-04 11:00:00 3.1333 2.4984 3.8 95.6 580.63 1.061 12.4
2023-12-04 20:00:00 2023-12-04 12:00:00 3.8000 3.1468 4.2 95.5 580.63 1.047 12.4
2023-12-04 21:00:00 2023-12-04 13:00:00 3.8389 3.1707 4.3 95.4 580.63 1.024 12.4
2023-12-04 22:00:00 2023-12-04 14:00:00 4.4500 3.8231 4.9 95.7 580.63 1.010 12.4
2023-12-04 23:00:00 2023-12-04 15:00:00 3.7722 3.1192 4.1 95.5 580.63 0.999 12.3
2023-12-05 00:00:00 2023-12-04 16:00:00 3.9833 3.3736 4.5 95.8 580.63 0.995 12.2
2023-12-05 01:00:00 2023-12-04 17:00:00 4.7056 4.1071 5.2 95.9 580.63 0.979 12.2
2023-12-05 02:00:00 2023-12-04 18:00:00 5.2500 4.6340 5.7 95.8 580.63 0.953 12.1
2023-12-05 03:00:00 2023-12-04 19:00:00 5.2111 4.5804 5.6 95.7 580.63 0.945 12.1
2023-12-05 04:00:00 2023-12-04 20:00:00 5.0500 4.4499 5.5 95.9 580.63 0.929 12.1
2023-12-05 05:00:00 2023-12-04 21:00:00 4.9222 4.3228 5.3 95.9 580.63 0.926 12.1
2023-12-05 06:00:00 2023-12-04 22:00:00 5.1111 4.5257 5.6 96.0 580.63 0.915 12.1
2023-12-05 07:00:00 2023-12-04 23:00:00 5.3111 4.7247 5.8 96.0 580.63 0.892 12.1
2023-12-05 08:00:00 2023-12-05 00:00:00 5.2111 4.6252 5.6 96.0 580.63 0.876 12.1
2023-12-05 09:00:00 2023-12-05 01:00:00 5.2722 4.6860 5.7 96.0 580.63 0.879 12.1
2023-12-05 10:00:00 2023-12-05 02:00:00 5.1389 4.5533 5.5 96.0 580.63 0.853 12.1
2023-12-05 11:00:00 2023-12-05 03:00:00 4.9056 4.3359 5.3 96.1 580.63 0.836 12.1
2023-12-05 12:00:00 2023-12-05 04:00:00 4.6056 4.0373 5.0 96.1 580.63 0.833 12.1
2023-12-05 13:00:00 2023-12-05 05:00:00 4.5889 4.0207 5.0 96.1 580.63 0.822 12.1
2023-12-05 14:00:00 2023-12-05 06:00:00 4.6167 4.0484 5.0 96.1 580.63 0.813 12.1
2023-12-05 15:00:00 2023-12-05 07:00:00 4.3167 3.7645 4.7 96.2 580.63 0.795 12.1
2023-12-05 16:00:00 2023-12-05 08:00:00 4.1667 3.6004 4.6 96.1 580.63 0.784 12.1
2023-12-05 17:00:00 2023-12-05 09:00:00 4.0778 3.5267 4.5 96.2 580.63 0.768 12.1
2023-12-05 18:00:00 2023-12-05 10:00:00 4.2333 3.6816 4.6 96.2 580.63 0.764 12.2
2023-12-05 19:00:00 2023-12-05 11:00:00 4.2111 3.6447 4.6 96.1 580.63 0.765 12.2
2023-12-05 20:00:00 2023-12-05 12:00:00 4.2056 3.6539 4.6 96.2 580.63 0.760 12.2
2023-12-05 21:00:00 2023-12-05 13:00:00 4.2056 3.6539 4.6 96.2 580.63 0.740 12.2
2023-12-05 22:00:00 2023-12-05 14:00:00 3.9722 3.4216 4.4 96.2 580.63 0.738 12.2
2023-12-05 23:00:00 2023-12-05 15:00:00 3.9944 3.4438 4.4 96.2 580.63 0.731 12.1
2023-12-06 00:00:00 2023-12-05 16:00:00 3.7278 3.1783 4.0 96.2 580.63 0.723 12.1
2023-12-06 01:00:00 2023-12-05 17:00:00 3.4722 2.9239 3.8 96.2 580.63 0.720 12.1
2023-12-06 02:00:00 2023-12-05 18:00:00 3.4500 2.9164 3.9 96.3 580.63 0.710 12.1
2023-12-06 03:00:00 2023-12-05 19:00:00 3.6222 3.0732 4.0 96.2 580.63 0.705 12.1
2023-12-06 04:00:00 2023-12-05 20:00:00 3.8722 3.3221 4.3 96.2 580.63 0.697 12.1
2023-12-06 05:00:00 2023-12-05 21:00:00 3.8389 3.2889 4.2 96.2 580.63 0.697 12.1
2023-12-06 06:00:00 2023-12-05 22:00:00 3.7500 3.2004 4.1 96.2 580.63 0.690 12.1
2023-12-06 07:00:00 2023-12-05 23:00:00 3.5667 3.0179 3.9 96.2 580.63 0.688 12.1